sensor_id;sensor_type;location;lat;lon;timestamp;temperature;humidity
23507;DHT22;11930;53.076;18.250;2023-12-22T00:01:43;5.40;99.90
23507;DHT22;11930;53.076;18.250;2023-12-22T00:04:09;5.40;99.90
23507;DHT22;11930;53.076;18.250;2023-12-22T00:06:35;5.40;99.90
23507;DHT22;11930;53.076;18.250;2023-12-22T00:09:02;5.40;99.90
23507;DHT22;11930;53.076;18.250;2023-12-22T00:11:28;5.40;99.90
23507;DHT22;11930;53.076;18.250;2023-12-22T00:13:54;5.40;99.90
23507;DHT22;11930;53.076;18.250;2023-12-22T00:16:20;5.40;99.90
23507;DHT22;11930;53.076;18.250;2023-12-22T00:18:46;5.40;99.90
23507;DHT22;11930;53.076;18.250;2023-12-22T00:21:13;5.40;99.90
23507;DHT22;11930;53.076;18.250;2023-12-22T00:23:39;5.30;99.90
23507;DHT22;11930;53.076;18.250;2023-12-22T00:26:05;5.30;99.90
23507;DHT22;11930;53.076;18.250;2023-12-22T00:28:32;5.30;99.90
23507;DHT22;11930;53.076;18.250;2023-12-22T00:30:58;5.30;99.90
23507;DHT22;11930;53.076;18.250;2023-12-22T00:33:25;5.30;99.90
23507;DHT22;11930;53.076;18.250;2023-12-22T00:35:52;5.30;99.90
23507;DHT22;11930;53.076;18.250;2023-12-22T00:38:18;5.30;99.90
23507;DHT22;11930;53.076;18.250;2023-12-22T00:40:44;5.30;99.90
23507;DHT22;11930;53.076;18.250;2023-12-22T00:43:11;5.30;99.90
23507;DHT22;11930;53.076;18.250;2023-12-22T00:45:37;5.30;99.90
23507;DHT22;11930;53.076;18.250;2023-12-22T00:48:03;5.40;99.90
23507;DHT22;11930;53.076;18.250;2023-12-22T00:50:29;5.40;99.90
23507;DHT22;11930;53.076;18.250;2023-12-22T00:52:56;5.40;99.90
23507;DHT22;11930;53.076;18.250;2023-12-22T00:55:22;5.40;99.90
23507;DHT22;11930;53.076;18.250;2023-12-22T00:57:48;5.40;99.90
23507;DHT22;11930;53.076;18.250;2023-12-22T01:00:15;5.40;99.90
23507;DHT22;11930;53.076;18.250;2023-12-22T01:02:41;5.40;99.90
23507;DHT22;11930;53.076;18.250;2023-12-22T01:05:07;5.30;99.90
23507;DHT22;11930;53.076;18.250;2023-12-22T01:07:34;5.10;99.90
23507;DHT22;11930;53.076;18.250;2023-12-22T01:10:00;5.00;99.90
23507;DHT22;11930;53.076;18.250;2023-12-22T01:12:28;4.90;99.90
23507;DHT22;11930;53.076;18.250;2023-12-22T01:14:58;4.80;99.90
23507;DHT22;11930;53.076;18.250;2023-12-22T01:17:24;4.70;99.90
23507;DHT22;11930;53.076;18.250;2023-12-22T01:19:50;4.60;99.90
23507;DHT22;11930;53.076;18.250;2023-12-22T01:22:17;4.50;99.90
23507;DHT22;11930;53.076;18.250;2023-12-22T01:24:43;4.50;99.90
23507;DHT22;11930;53.076;18.250;2023-12-22T01:27:12;4.40;99.90
23507;DHT22;11930;53.076;18.250;2023-12-22T01:29:38;4.30;99.90
23507;DHT22;11930;53.076;18.250;2023-12-22T01:32:05;4.20;99.90
23507;DHT22;11930;53.076;18.250;2023-12-22T01:34:31;4.20;99.90
23507;DHT22;11930;53.076;18.250;2023-12-22T01:36:57;4.10;99.90
23507;DHT22;11930;53.076;18.250;2023-12-22T01:39:23;4.20;99.90
23507;DHT22;11930;53.076;18.250;2023-12-22T01:41:50;4.20;99.90
23507;DHT22;11930;53.076;18.250;2023-12-22T01:44:16;4.20;99.90
23507;DHT22;11930;53.076;18.250;2023-12-22T01:46:42;4.20;99.90
23507;DHT22;11930;53.076;18.250;2023-12-22T01:49:09;4.20;99.90
23507;DHT22;11930;53.076;18.250;2023-12-22T01:51:37;4.20;99.90
23507;DHT22;11930;53.076;18.250;2023-12-22T01:54:06;4.30;99.90
23507;DHT22;11930;53.076;18.250;2023-12-22T01:56:33;4.30;99.90
23507;DHT22;11930;53.076;18.250;2023-12-22T01:59:00;4.30;99.90
23507;DHT22;11930;53.076;18.250;2023-12-22T02:01:28;4.30;99.90
23507;DHT22;11930;53.076;18.250;2023-12-22T02:03:54;4.30;99.90
23507;DHT22;11930;53.076;18.250;2023-12-22T02:06:21;4.40;99.90
23507;DHT22;11930;53.076;18.250;2023-12-22T02:08:48;4.30;99.90
23507;DHT22;11930;53.076;18.250;2023-12-22T02:11:15;4.30;99.90
23507;DHT22;11930;53.076;18.250;2023-12-22T02:13:44;4.30;99.90
23507;DHT22;11930;53.076;18.250;2023-12-22T02:16:37;4.20;99.90
23507;DHT22;11930;53.076;18.250;2023-12-22T02:19:25;4.20;99.90
23507;DHT22;11930;53.076;18.250;2023-12-22T02:22:06;4.20;99.90
23507;DHT22;11930;53.076;18.250;2023-12-22T02:24:33;4.20;99.90
23507;DHT22;11930;53.076;18.250;2023-12-22T02:29:36;4.10;99.90
23507;DHT22;11930;53.076;18.250;2023-12-22T02:32:08;4.10;99.90
23507;DHT22;11930;53.076;18.250;2023-12-22T02:34:37;4.10;99.90
23507;DHT22;11930;53.076;18.250;2023-12-22T02:37:08;4.10;99.90
23507;DHT22;11930;53.076;18.250;2023-12-22T02:39:37;4.10;99.90
23507;DHT22;11930;53.076;18.250;2023-12-22T02:42:04;4.10;99.90
23507;DHT22;11930;53.076;18.250;2023-12-22T02:44:32;4.10;99.90
23507;DHT22;11930;53.076;18.250;2023-12-22T02:46:58;4.10;99.90
23507;DHT22;11930;53.076;18.250;2023-12-22T02:49:25;4.20;99.90
23507;DHT22;11930;53.076;18.250;2023-12-22T02:51:51;4.10;99.90
23507;DHT22;11930;53.076;18.250;2023-12-22T02:54:17;4.10;99.90
23507;DHT22;11930;53.076;18.250;2023-12-22T02:56:46;4.10;99.90
23507;DHT22;11930;53.076;18.250;2023-12-22T02:59:12;4.10;99.90
23507;DHT22;11930;53.076;18.250;2023-12-22T03:01:38;4.10;99.90
23507;DHT22;11930;53.076;18.250;2023-12-22T03:04:04;4.00;99.90
23507;DHT22;11930;53.076;18.250;2023-12-22T03:06:31;4.00;99.90
23507;DHT22;11930;53.076;18.250;2023-12-22T03:08:57;4.00;99.90
23507;DHT22;11930;53.076;18.250;2023-12-22T03:11:23;4.00;99.90
23507;DHT22;11930;53.076;18.250;2023-12-22T03:13:49;4.00;99.90
23507;DHT22;11930;53.076;18.250;2023-12-22T03:16:16;4.00;99.90
23507;DHT22;11930;53.076;18.250;2023-12-22T03:18:42;4.10;99.90
23507;DHT22;11930;53.076;18.250;2023-12-22T03:21:11;4.10;99.90
23507;DHT22;11930;53.076;18.250;2023-12-22T03:23:41;4.10;99.90
23507;DHT22;11930;53.076;18.250;2023-12-22T03:26:07;4.10;99.90
23507;DHT22;11930;53.076;18.250;2023-12-22T03:28:34;4.10;99.90
23507;DHT22;11930;53.076;18.250;2023-12-22T03:31:00;4.20;99.90
23507;DHT22;11930;53.076;18.250;2023-12-22T03:33:26;4.20;99.90
23507;DHT22;11930;53.076;18.250;2023-12-22T03:35:52;4.30;99.90
23507;DHT22;11930;53.076;18.250;2023-12-22T03:38:19;4.20;99.90
23507;DHT22;11930;53.076;18.250;2023-12-22T03:40:45;4.20;99.90
23507;DHT22;11930;53.076;18.250;2023-12-22T03:43:11;4.20;99.90
23507;DHT22;11930;53.076;18.250;2023-12-22T03:45:38;4.10;99.90
23507;DHT22;11930;53.076;18.250;2023-12-22T03:48:04;4.10;99.90
23507;DHT22;11930;53.076;18.250;2023-12-22T03:50:31;4.10;99.90
23507;DHT22;11930;53.076;18.250;2023-12-22T03:52:57;4.20;99.90
23507;DHT22;11930;53.076;18.250;2023-12-22T03:55:23;4.20;99.90
23507;DHT22;11930;53.076;18.250;2023-12-22T03:57:49;4.20;99.90
23507;DHT22;11930;53.076;18.250;2023-12-22T04:00:16;4.30;99.90
23507;DHT22;11930;53.076;18.250;2023-12-22T04:02:42;4.30;99.90
23507;DHT22;11930;53.076;18.250;2023-12-22T04:05:11;4.30;99.90
23507;DHT22;11930;53.076;18.250;2023-12-22T04:07:37;4.40;99.90
23507;DHT22;11930;53.076;18.250;2023-12-22T04:10:04;4.50;99.90
23507;DHT22;11930;53.076;18.250;2023-12-22T04:12:30;4.50;99.90
23507;DHT22;11930;53.076;18.250;2023-12-22T04:14:56;4.50;99.90
23507;DHT22;11930;53.076;18.250;2023-12-22T04:17:22;4.60;99.90
23507;DHT22;11930;53.076;18.250;2023-12-22T04:19:49;4.60;99.90
23507;DHT22;11930;53.076;18.250;2023-12-22T04:22:15;4.60;99.90
23507;DHT22;11930;53.076;18.250;2023-12-22T04:24:41;4.60;99.90
23507;DHT22;11930;53.076;18.250;2023-12-22T04:27:07;4.60;99.90
23507;DHT22;11930;53.076;18.250;2023-12-22T04:29:33;4.60;99.90
23507;DHT22;11930;53.076;18.250;2023-12-22T04:32:00;4.60;99.90
23507;DHT22;11930;53.076;18.250;2023-12-22T04:34:26;4.60;99.90
23507;DHT22;11930;53.076;18.250;2023-12-22T04:36:52;4.60;99.90
23507;DHT22;11930;53.076;18.250;2023-12-22T04:39:18;4.60;99.90
23507;DHT22;11930;53.076;18.250;2023-12-22T04:41:44;4.60;99.90
23507;DHT22;11930;53.076;18.250;2023-12-22T04:44:10;4.60;99.90
23507;DHT22;11930;53.076;18.250;2023-12-22T04:46:37;4.60;99.90
23507;DHT22;11930;53.076;18.250;2023-12-22T04:49:03;4.60;99.90
23507;DHT22;11930;53.076;18.250;2023-12-22T04:51:29;4.60;99.90
23507;DHT22;11930;53.076;18.250;2023-12-22T04:53:55;4.60;99.90
23507;DHT22;11930;53.076;18.250;2023-12-22T04:56:22;4.60;99.90
23507;DHT22;11930;53.076;18.250;2023-12-22T04:58:48;4.60;99.90
23507;DHT22;11930;53.076;18.250;2023-12-22T05:01:14;4.60;99.90
23507;DHT22;11930;53.076;18.250;2023-12-22T05:03:40;4.60;99.90
23507;DHT22;11930;53.076;18.250;2023-12-22T05:06:07;4.50;99.90
23507;DHT22;11930;53.076;18.250;2023-12-22T05:08:33;4.50;99.90
23507;DHT22;11930;53.076;18.250;2023-12-22T05:11:00;4.50;99.90
23507;DHT22;11930;53.076;18.250;2023-12-22T05:13:26;4.50;99.90
23507;DHT22;11930;53.076;18.250;2023-12-22T05:15:52;4.50;99.90
23507;DHT22;11930;53.076;18.250;2023-12-22T05:18:18;4.40;99.90
23507;DHT22;11930;53.076;18.250;2023-12-22T05:20:45;4.40;99.90
23507;DHT22;11930;53.076;18.250;2023-12-22T05:23:11;4.40;99.90
23507;DHT22;11930;53.076;18.250;2023-12-22T05:25:37;4.40;99.90
23507;DHT22;11930;53.076;18.250;2023-12-22T05:28:03;4.40;99.90
23507;DHT22;11930;53.076;18.250;2023-12-22T05:30:30;4.30;99.90
23507;DHT22;11930;53.076;18.250;2023-12-22T05:32:56;4.30;99.90
23507;DHT22;11930;53.076;18.250;2023-12-22T05:35:22;4.30;99.90
23507;DHT22;11930;53.076;18.250;2023-12-22T05:37:48;4.30;99.90
23507;DHT22;11930;53.076;18.250;2023-12-22T05:40:15;4.30;99.90
23507;DHT22;11930;53.076;18.250;2023-12-22T05:42:41;4.30;99.90
23507;DHT22;11930;53.076;18.250;2023-12-22T05:45:08;4.30;99.90
23507;DHT22;11930;53.076;18.250;2023-12-22T05:47:37;4.20;99.90
23507;DHT22;11930;53.076;18.250;2023-12-22T05:50:04;4.20;99.90
23507;DHT22;11930;53.076;18.250;2023-12-22T05:52:30;4.10;99.90
23507;DHT22;11930;53.076;18.250;2023-12-22T05:54:56;4.00;99.90
23507;DHT22;11930;53.076;18.250;2023-12-22T05:57:25;3.90;99.90
23507;DHT22;11930;53.076;18.250;2023-12-22T05:59:51;3.80;99.90
23507;DHT22;11930;53.076;18.250;2023-12-22T06:02:18;3.80;99.90
23507;DHT22;11930;53.076;18.250;2023-12-22T06:04:44;3.70;99.90
23507;DHT22;11930;53.076;18.250;2023-12-22T06:07:11;3.60;99.90
23507;DHT22;11930;53.076;18.250;2023-12-22T06:09:37;3.60;99.90
23507;DHT22;11930;53.076;18.250;2023-12-22T06:12:03;3.50;99.90
23507;DHT22;11930;53.076;18.250;2023-12-22T06:14:31;3.50;99.90
23507;DHT22;11930;53.076;18.250;2023-12-22T06:16:57;3.40;99.90
23507;DHT22;11930;53.076;18.250;2023-12-22T06:19:24;3.40;99.90
23507;DHT22;11930;53.076;18.250;2023-12-22T06:21:54;3.40;99.90
23507;DHT22;11930;53.076;18.250;2023-12-22T06:24:20;3.40;99.90
23507;DHT22;11930;53.076;18.250;2023-12-22T06:26:46;3.40;99.90
23507;DHT22;11930;53.076;18.250;2023-12-22T06:29:13;3.40;99.90
23507;DHT22;11930;53.076;18.250;2023-12-22T06:31:40;3.40;99.90
23507;DHT22;11930;53.076;18.250;2023-12-22T06:34:06;3.40;99.90
23507;DHT22;11930;53.076;18.250;2023-12-22T06:36:32;3.40;99.90
23507;DHT22;11930;53.076;18.250;2023-12-22T06:38:59;3.30;99.90
23507;DHT22;11930;53.076;18.250;2023-12-22T06:41:27;3.30;99.90
23507;DHT22;11930;53.076;18.250;2023-12-22T06:43:53;3.30;99.90
23507;DHT22;11930;53.076;18.250;2023-12-22T06:46:21;3.30;99.90
23507;DHT22;11930;53.076;18.250;2023-12-22T06:48:49;3.30;99.90
23507;DHT22;11930;53.076;18.250;2023-12-22T06:51:18;3.30;99.90
23507;DHT22;11930;53.076;18.250;2023-12-22T06:53:46;3.20;99.90
23507;DHT22;11930;53.076;18.250;2023-12-22T06:56:22;3.20;99.90
23507;DHT22;11930;53.076;18.250;2023-12-22T06:58:51;3.20;99.90
23507;DHT22;11930;53.076;18.250;2023-12-22T07:01:19;3.10;99.90
23507;DHT22;11930;53.076;18.250;2023-12-22T07:03:47;3.10;99.90
23507;DHT22;11930;53.076;18.250;2023-12-22T07:06:17;3.00;99.90
23507;DHT22;11930;53.076;18.250;2023-12-22T07:09:41;3.00;99.90
23507;DHT22;11930;53.076;18.250;2023-12-22T07:11:46;2.90;99.90
23507;DHT22;11930;53.076;18.250;2023-12-22T07:14:12;2.80;99.90
23507;DHT22;11930;53.076;18.250;2023-12-22T07:16:39;2.70;99.90
23507;DHT22;11930;53.076;18.250;2023-12-22T07:19:05;2.70;99.90
23507;DHT22;11930;53.076;18.250;2023-12-22T07:21:32;2.70;99.90
23507;DHT22;11930;53.076;18.250;2023-12-22T07:23:58;2.70;99.90
23507;DHT22;11930;53.076;18.250;2023-12-22T07:26:24;2.80;99.90
23507;DHT22;11930;53.076;18.250;2023-12-22T07:28:53;2.80;99.90
23507;DHT22;11930;53.076;18.250;2023-12-22T07:31:20;2.90;99.90
23507;DHT22;11930;53.076;18.250;2023-12-22T07:33:46;3.00;99.90
23507;DHT22;11930;53.076;18.250;2023-12-22T07:36:12;3.10;99.90
23507;DHT22;11930;53.076;18.250;2023-12-22T07:38:38;3.10;99.90
23507;DHT22;11930;53.076;18.250;2023-12-22T07:41:08;3.20;99.90
23507;DHT22;11930;53.076;18.250;2023-12-22T07:43:35;3.30;99.90
23507;DHT22;11930;53.076;18.250;2023-12-22T07:46:01;3.40;99.90
23507;DHT22;11930;53.076;18.250;2023-12-22T07:48:27;3.40;99.90
23507;DHT22;11930;53.076;18.250;2023-12-22T07:50:53;3.50;99.90
23507;DHT22;11930;53.076;18.250;2023-12-22T07:53:20;3.50;99.90
23507;DHT22;11930;53.076;18.250;2023-12-22T07:55:47;3.60;99.90
23507;DHT22;11930;53.076;18.250;2023-12-22T07:58:13;3.60;99.90
23507;DHT22;11930;53.076;18.250;2023-12-22T08:00:40;3.60;99.90
23507;DHT22;11930;53.076;18.250;2023-12-22T08:03:06;3.60;99.90
23507;DHT22;11930;53.076;18.250;2023-12-22T08:05:32;3.60;99.90
23507;DHT22;11930;53.076;18.250;2023-12-22T08:07:59;3.60;99.90
23507;DHT22;11930;53.076;18.250;2023-12-22T08:10:25;3.60;99.90
23507;DHT22;11930;53.076;18.250;2023-12-22T08:12:53;3.60;99.90
23507;DHT22;11930;53.076;18.250;2023-12-22T08:15:19;3.60;99.90
23507;DHT22;11930;53.076;18.250;2023-12-22T08:17:49;3.70;99.90
23507;DHT22;11930;53.076;18.250;2023-12-22T08:20:19;3.70;99.90
23507;DHT22;11930;53.076;18.250;2023-12-22T08:22:47;3.80;99.90
23507;DHT22;11930;53.076;18.250;2023-12-22T08:25:14;4.00;99.90
23507;DHT22;11930;53.076;18.250;2023-12-22T08:27:40;4.20;99.90
23507;DHT22;11930;53.076;18.250;2023-12-22T08:30:08;4.40;99.90
23507;DHT22;11930;53.076;18.250;2023-12-22T08:32:35;4.60;99.90
23507;DHT22;11930;53.076;18.250;2023-12-22T08:35:01;4.90;99.90
23507;DHT22;11930;53.076;18.250;2023-12-22T08:37:28;5.10;99.90
23507;DHT22;11930;53.076;18.250;2023-12-22T08:39:53;5.30;99.90
23507;DHT22;11930;53.076;18.250;2023-12-22T08:42:20;5.40;99.90
23507;DHT22;11930;53.076;18.250;2023-12-22T08:44:48;5.50;99.90
23507;DHT22;11930;53.076;18.250;2023-12-22T08:47:15;5.50;99.90
23507;DHT22;11930;53.076;18.250;2023-12-22T08:49:41;5.60;99.90
23507;DHT22;11930;53.076;18.250;2023-12-22T08:52:08;5.60;99.90
23507;DHT22;11930;53.076;18.250;2023-12-22T08:54:34;5.40;99.90
23507;DHT22;11930;53.076;18.250;2023-12-22T08:57:02;5.20;99.90
23507;DHT22;11930;53.076;18.250;2023-12-22T08:59:28;4.80;99.90
23507;DHT22;11930;53.076;18.250;2023-12-22T09:01:55;4.50;99.90
23507;DHT22;11930;53.076;18.250;2023-12-22T09:04:21;4.10;99.90
23507;DHT22;11930;53.076;18.250;2023-12-22T09:06:49;3.80;99.90
23507;DHT22;11930;53.076;18.250;2023-12-22T09:09:15;3.60;99.90
23507;DHT22;11930;53.076;18.250;2023-12-22T09:11:42;3.40;99.90
23507;DHT22;11930;53.076;18.250;2023-12-22T09:14:08;3.30;99.90
23507;DHT22;11930;53.076;18.250;2023-12-22T09:16:38;3.40;99.90
23507;DHT22;11930;53.076;18.250;2023-12-22T09:19:04;3.60;99.90
23507;DHT22;11930;53.076;18.250;2023-12-22T09:21:30;3.90;99.90
23507;DHT22;11930;53.076;18.250;2023-12-22T09:23:56;4.20;99.90
23507;DHT22;11930;53.076;18.250;2023-12-22T09:26:23;4.50;99.90
23507;DHT22;11930;53.076;18.250;2023-12-22T09:28:49;4.80;99.90
23507;DHT22;11930;53.076;18.250;2023-12-22T09:31:15;5.00;99.90
23507;DHT22;11930;53.076;18.250;2023-12-22T09:33:42;5.10;99.90
23507;DHT22;11930;53.076;18.250;2023-12-22T09:36:09;5.10;99.90
23507;DHT22;11930;53.076;18.250;2023-12-22T09:38:36;5.10;99.90
23507;DHT22;11930;53.076;18.250;2023-12-22T09:41:04;4.90;99.90
23507;DHT22;11930;53.076;18.250;2023-12-22T09:43:35;4.80;99.90
23507;DHT22;11930;53.076;18.250;2023-12-22T09:46:03;4.70;99.90
23507;DHT22;11930;53.076;18.250;2023-12-22T09:48:30;4.50;99.90
23507;DHT22;11930;53.076;18.250;2023-12-22T09:50:58;4.50;99.90
23507;DHT22;11930;53.076;18.250;2023-12-22T09:53:26;4.40;99.90
23507;DHT22;11930;53.076;18.250;2023-12-22T09:55:55;4.30;99.90
23507;DHT22;11930;53.076;18.250;2023-12-22T09:58:22;4.20;99.90
23507;DHT22;11930;53.076;18.250;2023-12-22T10:00:49;4.20;99.90
23507;DHT22;11930;53.076;18.250;2023-12-22T10:03:17;4.10;99.90
23507;DHT22;11930;53.076;18.250;2023-12-22T10:05:45;4.00;99.90
23507;DHT22;11930;53.076;18.250;2023-12-22T10:08:13;4.00;99.90
23507;DHT22;11930;53.076;18.250;2023-12-22T10:10:40;3.90;99.90
23507;DHT22;11930;53.076;18.250;2023-12-22T10:13:07;3.90;99.90
23507;DHT22;11930;53.076;18.250;2023-12-22T10:15:41;3.80;99.90
23507;DHT22;11930;53.076;18.250;2023-12-22T10:18:07;3.80;99.90
23507;DHT22;11930;53.076;18.250;2023-12-22T10:20:35;3.80;99.90
23507;DHT22;11930;53.076;18.250;2023-12-22T10:23:01;3.70;99.90
23507;DHT22;11930;53.076;18.250;2023-12-22T10:25:31;3.70;99.90
23507;DHT22;11930;53.076;18.250;2023-12-22T10:27:58;3.70;99.90
23507;DHT22;11930;53.076;18.250;2023-12-22T10:30:26;3.70;99.90
23507;DHT22;11930;53.076;18.250;2023-12-22T10:32:53;3.70;99.90
23507;DHT22;11930;53.076;18.250;2023-12-22T10:35:20;3.60;99.90
23507;DHT22;11930;53.076;18.250;2023-12-22T10:37:47;3.60;99.90
23507;DHT22;11930;53.076;18.250;2023-12-22T10:40:14;3.60;99.90
23507;DHT22;11930;53.076;18.250;2023-12-22T10:42:41;3.50;99.90
23507;DHT22;11930;53.076;18.250;2023-12-22T10:45:08;3.40;99.90
23507;DHT22;11930;53.076;18.250;2023-12-22T10:47:34;3.30;99.90
23507;DHT22;11930;53.076;18.250;2023-12-22T10:50:02;3.20;99.90
23507;DHT22;11930;53.076;18.250;2023-12-22T10:52:30;3.10;99.90
23507;DHT22;11930;53.076;18.250;2023-12-22T10:54:59;3.10;99.90
23507;DHT22;11930;53.076;18.250;2023-12-22T10:57:26;3.00;99.90
23507;DHT22;11930;53.076;18.250;2023-12-22T10:59:56;3.00;99.90
23507;DHT22;11930;53.076;18.250;2023-12-22T11:02:23;3.00;99.90
23507;DHT22;11930;53.076;18.250;2023-12-22T11:04:57;3.00;99.90
23507;DHT22;11930;53.076;18.250;2023-12-22T11:07:24;3.10;99.90
23507;DHT22;11930;53.076;18.250;2023-12-22T11:09:55;3.10;99.90
23507;DHT22;11930;53.076;18.250;2023-12-22T11:12:23;3.10;99.90
23507;DHT22;11930;53.076;18.250;2023-12-22T11:14:50;3.10;99.90
23507;DHT22;11930;53.076;18.250;2023-12-22T11:17:22;3.10;99.90
23507;DHT22;11930;53.076;18.250;2023-12-22T11:19:53;3.20;99.90
23507;DHT22;11930;53.076;18.250;2023-12-22T11:22:21;3.30;99.90
23507;DHT22;11930;53.076;18.250;2023-12-22T11:24:48;3.30;99.90
23507;DHT22;11930;53.076;18.250;2023-12-22T11:27:18;3.40;99.90
23507;DHT22;11930;53.076;18.250;2023-12-22T11:29:49;3.40;99.90
23507;DHT22;11930;53.076;18.250;2023-12-22T11:32:19;3.50;99.90
23507;DHT22;11930;53.076;18.250;2023-12-22T11:34:46;3.50;99.90
23507;DHT22;11930;53.076;18.250;2023-12-22T11:37:15;3.50;99.90
23507;DHT22;11930;53.076;18.250;2023-12-22T11:39:42;3.50;99.90
23507;DHT22;11930;53.076;18.250;2023-12-22T11:42:22;3.50;99.90
23507;DHT22;11930;53.076;18.250;2023-12-22T11:44:49;3.50;99.90
23507;DHT22;11930;53.076;18.250;2023-12-22T11:47:15;3.40;99.90
23507;DHT22;11930;53.076;18.250;2023-12-22T11:49:42;3.50;99.90
23507;DHT22;11930;53.076;18.250;2023-12-22T11:52:13;3.40;99.90
23507;DHT22;11930;53.076;18.250;2023-12-22T11:54:47;3.40;99.90
23507;DHT22;11930;53.076;18.250;2023-12-22T11:57:40;3.40;99.90
23507;DHT22;11930;53.076;18.250;2023-12-22T12:02:54;3.20;99.90
23507;DHT22;11930;53.076;18.250;2023-12-22T12:05:22;3.10;99.90
23507;DHT22;11930;53.076;18.250;2023-12-22T12:07:48;3.00;99.90
23507;DHT22;11930;53.076;18.250;2023-12-22T12:13:08;2.80;99.90
23507;DHT22;11930;53.076;18.250;2023-12-22T12:15:37;2.70;99.90
23507;DHT22;11930;53.076;18.250;2023-12-22T12:18:05;2.60;99.90
23507;DHT22;11930;53.076;18.250;2023-12-22T12:20:34;2.50;99.90
23507;DHT22;11930;53.076;18.250;2023-12-22T12:23:03;2.50;99.90
23507;DHT22;11930;53.076;18.250;2023-12-22T12:25:32;2.50;99.90
23507;DHT22;11930;53.076;18.250;2023-12-22T12:28:02;2.50;99.90
23507;DHT22;11930;53.076;18.250;2023-12-22T12:30:30;2.40;99.90
23507;DHT22;11930;53.076;18.250;2023-12-22T12:33:08;2.40;99.90
23507;DHT22;11930;53.076;18.250;2023-12-22T12:35:37;2.40;99.90
23507;DHT22;11930;53.076;18.250;2023-12-22T12:38:04;2.40;99.90
23507;DHT22;11930;53.076;18.250;2023-12-22T12:40:30;2.30;99.90
23507;DHT22;11930;53.076;18.250;2023-12-22T12:43:00;2.30;99.90
23507;DHT22;11930;53.076;18.250;2023-12-22T12:45:27;2.30;99.90
23507;DHT22;11930;53.076;18.250;2023-12-22T12:48:03;2.30;99.90
23507;DHT22;11930;53.076;18.250;2023-12-22T12:50:30;2.30;99.90
23507;DHT22;11930;53.076;18.250;2023-12-22T12:52:57;2.30;99.90
23507;DHT22;11930;53.076;18.250;2023-12-22T12:55:25;2.30;99.90
23507;DHT22;11930;53.076;18.250;2023-12-22T12:57:55;2.30;99.90
23507;DHT22;11930;53.076;18.250;2023-12-22T13:00:28;2.30;99.90
23507;DHT22;11930;53.076;18.250;2023-12-22T13:03:01;2.30;99.90
23507;DHT22;11930;53.076;18.250;2023-12-22T13:05:29;2.30;99.90
23507;DHT22;11930;53.076;18.250;2023-12-22T13:08:07;2.30;99.90
23507;DHT22;11930;53.076;18.250;2023-12-22T13:10:34;2.30;99.90
23507;DHT22;11930;53.076;18.250;2023-12-22T13:13:01;2.30;99.90
23507;DHT22;11930;53.076;18.250;2023-12-22T13:15:27;2.20;99.90
23507;DHT22;11930;53.076;18.250;2023-12-22T13:17:54;2.20;99.90
23507;DHT22;11930;53.076;18.250;2023-12-22T13:20:21;2.20;99.90
23507;DHT22;11930;53.076;18.250;2023-12-22T13:22:48;2.20;99.90
23507;DHT22;11930;53.076;18.250;2023-12-22T13:25:14;2.20;99.90
23507;DHT22;11930;53.076;18.250;2023-12-22T13:27:47;2.20;99.90
23507;DHT22;11930;53.076;18.250;2023-12-22T13:30:14;2.20;99.90
23507;DHT22;11930;53.076;18.250;2023-12-22T13:32:41;2.20;99.90
23507;DHT22;11930;53.076;18.250;2023-12-22T13:35:07;2.20;99.90
23507;DHT22;11930;53.076;18.250;2023-12-22T13:37:34;2.20;99.90
23507;DHT22;11930;53.076;18.250;2023-12-22T13:40:00;2.20;99.90
23507;DHT22;11930;53.076;18.250;2023-12-22T13:42:32;2.20;99.90
23507;DHT22;11930;53.076;18.250;2023-12-22T13:44:58;2.20;99.90
23507;DHT22;11930;53.076;18.250;2023-12-22T13:47:24;2.20;99.90
23507;DHT22;11930;53.076;18.250;2023-12-22T13:49:50;2.20;99.90
23507;DHT22;11930;53.076;18.250;2023-12-22T13:52:30;2.20;99.90
23507;DHT22;11930;53.076;18.250;2023-12-22T13:55:01;2.20;99.90
23507;DHT22;11930;53.076;18.250;2023-12-22T13:57:28;2.20;99.90
23507;DHT22;11930;53.076;18.250;2023-12-22T13:59:55;2.20;99.90
23507;DHT22;11930;53.076;18.250;2023-12-22T14:02:22;2.20;99.90
23507;DHT22;11930;53.076;18.250;2023-12-22T14:04:51;2.20;99.90
23507;DHT22;11930;53.076;18.250;2023-12-22T14:07:17;2.20;99.90
23507;DHT22;11930;53.076;18.250;2023-12-22T14:09:44;2.20;99.90
23507;DHT22;11930;53.076;18.250;2023-12-22T14:12:10;2.20;99.90
23507;DHT22;11930;53.076;18.250;2023-12-22T14:14:36;2.20;99.90
23507;DHT22;11930;53.076;18.250;2023-12-22T14:17:03;2.20;99.90
23507;DHT22;11930;53.076;18.250;2023-12-22T14:19:29;2.20;99.90
23507;DHT22;11930;53.076;18.250;2023-12-22T14:21:55;2.30;99.90
23507;DHT22;11930;53.076;18.250;2023-12-22T14:24:21;2.30;99.90
23507;DHT22;11930;53.076;18.250;2023-12-22T14:26:55;2.20;99.90
23507;DHT22;11930;53.076;18.250;2023-12-22T14:29:21;2.30;99.90
23507;DHT22;11930;53.076;18.250;2023-12-22T14:31:51;2.30;99.90
23507;DHT22;11930;53.076;18.250;2023-12-22T14:34:18;2.30;99.90
23507;DHT22;11930;53.076;18.250;2023-12-22T14:36:44;2.30;99.90
23507;DHT22;11930;53.076;18.250;2023-12-22T14:39:11;2.30;99.90
23507;DHT22;11930;53.076;18.250;2023-12-22T14:41:42;2.30;99.90
23507;DHT22;11930;53.076;18.250;2023-12-22T14:44:08;2.20;99.90
23507;DHT22;11930;53.076;18.250;2023-12-22T14:46:41;2.20;99.90
23507;DHT22;11930;53.076;18.250;2023-12-22T14:49:07;2.20;99.90
23507;DHT22;11930;53.076;18.250;2023-12-22T14:51:40;2.20;99.90
23507;DHT22;11930;53.076;18.250;2023-12-22T14:54:07;2.20;99.90
23507;DHT22;11930;53.076;18.250;2023-12-22T14:56:34;2.20;99.90
23507;DHT22;11930;53.076;18.250;2023-12-22T14:59:04;2.20;99.90
23507;DHT22;11930;53.076;18.250;2023-12-22T15:01:30;2.20;99.90
23507;DHT22;11930;53.076;18.250;2023-12-22T15:03:59;2.10;99.90
23507;DHT22;11930;53.076;18.250;2023-12-22T15:06:25;2.10;99.90
23507;DHT22;11930;53.076;18.250;2023-12-22T15:08:51;2.20;99.90
23507;DHT22;11930;53.076;18.250;2023-12-22T15:11:18;2.10;99.90
23507;DHT22;11930;53.076;18.250;2023-12-22T15:13:44;2.20;99.90
23507;DHT22;11930;53.076;18.250;2023-12-22T15:16:10;2.20;99.90
23507;DHT22;11930;53.076;18.250;2023-12-22T15:18:36;2.20;99.90
23507;DHT22;11930;53.076;18.250;2023-12-22T15:21:02;2.20;99.90
23507;DHT22;11930;53.076;18.250;2023-12-22T15:23:29;2.20;99.90
23507;DHT22;11930;53.076;18.250;2023-12-22T15:25:58;2.20;99.90
23507;DHT22;11930;53.076;18.250;2023-12-22T15:28:24;2.20;99.90
23507;DHT22;11930;53.076;18.250;2023-12-22T15:30:51;2.20;99.90
23507;DHT22;11930;53.076;18.250;2023-12-22T15:33:18;2.20;99.90
23507;DHT22;11930;53.076;18.250;2023-12-22T15:35:44;2.20;99.90
23507;DHT22;11930;53.076;18.250;2023-12-22T15:38:10;2.30;99.90
23507;DHT22;11930;53.076;18.250;2023-12-22T15:40:37;2.30;99.90